Time;durP1;ratioP1;P1;durP2;ratioP2;P2;SDS_P1;SDS_P2;PMS_P1;PMS_P2;Temp;Humidity;BMP_temperature;BMP_pressure;BME280_temperature;BME280_humidity;BME280_pressure;Samples;Min_cycle;Max_cycle;Signal;HPM_P1;HPM_P2
2021/08/03 00:01:03;;;;;;;0.10;0.10;;;15.60;99.90;;;;;;5031284;28;20037;-76
2021/08/03 00:03:44;;;;;;;0.10;0.10;;;15.60;99.90;;;;;;5030165;28;20025;-76
2021/08/03 00:06:16;;;;;;;0.10;0.10;;;15.50;99.90;;;;;;5030171;28;20029;-76
2021/08/03 00:08:42;;;;;;;;;;;15.60;99.90;;;;;;5014274;28;20021;-76
2021/08/03 00:11:09;;;;;;;0.10;0.10;;;15.70;99.90;;;;;;5031152;28;19908;-76
2021/08/03 00:13:37;;;;;;;0.10;0.10;;;15.60;99.90;;;;;;5029923;28;20057;-76
2021/08/03 00:16:08;;;;;;;0.30;0.30;;;15.40;99.90;;;;;;5029807;28;20033;-76
2021/08/03 00:18:36;;;;;;;0.10;0.10;;;15.30;99.90;;;;;;5030164;28;20035;-76
2021/08/03 00:21:02;;;;;;;0.10;0.10;;;15.30;99.90;;;;;;5030050;28;20025;-76
2021/08/03 00:23:28;;;;;;;0.10;0.10;;;15.10;99.90;;;;;;5031969;28;20112;-75
2021/08/03 00:25:54;;;;;;;0.40;0.40;;;14.90;99.90;;;;;;5031263;28;20025;-75
2021/08/03 00:28:21;;;;;;;0.43;0.40;;;15.00;99.90;;;;;;5032084;28;20101;-75
2021/08/03 00:30:47;;;;;;;0.20;0.20;;;14.80;99.90;;;;;;5034837;28;20021;-75
2021/08/03 00:33:14;;;;;;;0.10;0.10;;;14.70;99.90;;;;;;5033187;28;20392;-75
2021/08/03 00:35:40;;;;;;;0.17;0.17;;;14.60;99.90;;;;;;5033418;28;20508;-75
2021/08/03 00:38:07;;;;;;;0.10;0.10;;;14.60;99.90;;;;;;5034554;28;20132;-75
2021/08/03 00:40:40;;;;;;;0.10;0.10;;;14.50;99.90;;;;;;5033348;28;20116;-75
2021/08/03 00:43:06;;;;;;;0.10;0.10;;;14.70;99.90;;;;;;5034310;28;20033;-75
2021/08/03 00:45:41;;;;;;;0.10;0.10;;;14.80;99.90;;;;;;5041458;23;20026;-96
2021/08/03 00:48:27;;;;;;;0.15;0.15;;;15.00;99.90;;;;;;5043798;28;20013;-96
2021/08/03 00:50:53;;;;;;;0.10;0.10;;;15.10;99.90;;;;;;5042791;28;20027;-96
2021/08/03 00:53:30;;;;;;;0.10;0.10;;;15.40;99.90;;;;;;5042664;28;20077;-96
2021/08/03 00:55:59;;;;;;;0.20;0.20;;;15.20;99.90;;;;;;5042514;28;20033;-96
2021/08/03 00:58:33;;;;;;;0.10;0.10;;;14.90;99.90;;;;;;5042343;28;20026;-96
2021/08/03 01:01:02;;;;;;;0.10;0.10;;;14.70;99.90;;;;;;5058938;28;20021;-96
2021/08/03 01:03:27;;;;;;;0.10;0.10;;;14.70;99.90;;;;;;5042626;28;20013;-96
2021/08/03 01:06:05;;;;;;;0.30;0.30;;;14.90;99.90;;;;;;5042455;28;20218;-96
2021/08/03 01:12:17;;;;;;;0.10;0.10;;;15.00;99.90;;;;;;5058429;28;20029;-96
2021/08/03 01:14:53;;;;;;;0.13;0.13;;;15.00;99.90;;;;;;5058698;28;20024;-96
2021/08/03 01:17:56;;;;;;;1.55;0.50;;;14.90;99.90;;;;;;5042507;28;20002;-96
2021/08/03 01:20:47;;;;;;;0.10;0.10;;;15.00;99.90;;;;;;5042967;28;20014;-95
2021/08/03 01:23:44;;;;;;;0.47;0.47;;;15.00;99.90;;;;;;5042298;28;20025;-95
2021/08/03 01:26:37;;;;;;;0.10;0.10;;;15.10;99.90;;;;;;5039834;23;20057;-74
2021/08/03 01:29:06;;;;;;;0.10;0.10;;;15.10;99.90;;;;;;5014055;28;20097;-74
2021/08/03 01:31:36;;;;;;;0.15;0.15;;;15.20;99.90;;;;;;5013804;28;20025;-74
2021/08/03 01:34:12;;;;;;;0.10;0.10;;;15.10;99.90;;;;;;5012593;28;20033;-74
2021/08/03 01:36:40;;;;;;;0.10;0.10;;;15.10;99.90;;;;;;5013892;28;20026;-74
2021/08/03 01:39:07;;;;;;;0.32;0.32;;;14.80;99.90;;;;;;5013681;28;20084;-75
2021/08/03 01:41:34;;;;;;;0.15;0.15;;;14.70;99.90;;;;;;5013607;28;20477;-74
2021/08/03 01:44:02;;;;;;;0.20;0.20;;;14.80;99.90;;;;;;5012517;28;20029;-74
2021/08/03 01:46:29;;;;;;;0.10;0.10;;;14.80;99.90;;;;;;5012281;28;20030;-74
2021/08/03 01:48:59;;;;;;;0.10;0.10;;;14.90;99.90;;;;;;5013685;28;20117;-75
2021/08/03 01:51:26;;;;;;;0.10;0.10;;;14.90;99.90;;;;;;5013590;28;20054;-75
2021/08/03 01:53:54;;;;;;;0.10;0.10;;;15.00;99.90;;;;;;5012211;28;20369;-74
2021/08/03 01:56:22;;;;;;;0.10;0.10;;;14.90;99.90;;;;;;5012183;28;20430;-74
2021/08/03 01:58:49;;;;;;;0.10;0.10;;;14.70;99.90;;;;;;5012178;28;20029;-74
2021/08/03 02:01:18;;;;;;;0.10;0.10;;;14.70;99.90;;;;;;5013348;28;20464;-74
2021/08/03 02:03:44;;;;;;;5.20;0.65;;;14.80;99.90;;;;;;5012072;28;20504;-74
2021/08/03 02:06:10;;;;;;;0.15;0.15;;;14.80;99.90;;;;;;5013156;28;20026;-74
2021/08/03 02:08:36;;;;;;;0.10;0.10;;;14.90;99.90;;;;;;5013415;28;20072;-74
2021/08/03 02:11:04;;;;;;;0.10;0.10;;;15.10;99.90;;;;;;5013079;28;20382;-74
2021/08/03 02:13:31;;;;;;;0.10;0.10;;;15.20;99.90;;;;;;5011917;28;20093;-75
2021/08/03 02:15:56;;;;;;;0.13;0.13;;;15.20;99.90;;;;;;5013144;28;20022;-75
2021/08/03 02:18:22;;;;;;;0.10;0.10;;;15.20;99.90;;;;;;4995613;28;20500;-74
2021/08/03 02:20:48;;;;;;;0.10;0.10;;;15.10;99.90;;;;;;5013064;28;20367;-75
2021/08/03 02:23:14;;;;;;;0.10;0.10;;;15.10;99.90;;;;;;5012970;28;20076;-74
2021/08/03 02:25:42;;;;;;;0.10;0.10;;;15.10;99.90;;;;;;5012742;28;20367;-74
2021/08/03 02:28:08;;;;;;;0.63;0.63;;;15.30;99.90;;;;;;5013039;28;20033;-74
2021/08/03 02:30:34;;;;;;;0.10;0.10;;;15.30;99.90;;;;;;5011779;28;20026;-74
2021/08/03 02:33:11;;;;;;;0.10;0.10;;;15.10;99.90;;;;;;5011497;28;20053;-74
2021/08/03 02:35:57;;;;;;;0.10;0.10;;;15.10;99.90;;;;;;5011543;28;20045;-74
2021/08/03 02:38:27;;;;;;;0.30;0.30;;;15.00;99.90;;;;;;4995296;28;20555;-74
2021/08/03 02:40:54;;;;;;;0.10;0.10;;;15.00;99.90;;;;;;5012533;28;20109;-74
2021/08/03 02:43:23;;;;;;;0.13;0.13;;;14.90;99.90;;;;;;5012627;28;20040;-74
2021/08/03 02:45:50;;;;;;;0.20;0.20;;;14.80;99.90;;;;;;5012701;28;20052;-74
2021/08/03 02:48:19;;;;;;;0.20;0.20;;;14.70;99.90;;;;;;5011387;28;20500;-74
2021/08/03 02:50:46;;;;;;;0.20;0.20;;;14.60;99.90;;;;;;5012156;28;20049;-74
2021/08/03 02:53:35;;;;;;;0.13;0.13;;;14.60;99.90;;;;;;5011164;28;20029;-74
2021/08/03 02:56:09;;;;;;;0.10;0.10;;;14.60;99.90;;;;;;5011187;28;20485;-74
2021/08/03 02:58:41;;;;;;;0.17;0.17;;;14.70;99.90;;;;;;5012629;28;20034;-75
2021/08/03 03:01:10;;;;;;;0.20;0.20;;;14.70;99.90;;;;;;4994722;28;20044;-74
2021/08/03 03:03:41;;;;;;;0.10;0.10;;;14.70;99.90;;;;;;5012413;28;20033;-74
2021/08/03 03:06:11;;;;;;;0.10;0.10;;;14.80;99.90;;;;;;5012304;28;20036;-74
2021/08/03 03:08:40;;;;;;;0.15;0.15;;;14.80;99.90;;;;;;5011166;28;20237;-74
2021/08/03 03:11:08;;;;;;;0.10;0.10;;;15.00;99.90;;;;;;5012219;28;20028;-74
2021/08/03 03:13:39;;;;;;;0.10;0.10;;;15.00;99.90;;;;;;5011173;28;20144;-74
2021/08/03 03:16:07;;;;;;;0.10;0.10;;;15.00;99.90;;;;;;5012354;28;20062;-74
2021/08/03 03:18:33;;;;;;;0.25;0.25;;;15.00;99.90;;;;;;5012247;28;20091;-75
2021/08/03 03:21:04;;;;;;;0.13;0.13;;;14.80;99.90;;;;;;5012295;28;20490;-74
2021/08/03 03:23:35;;;;;;;0.17;0.17;;;14.70;99.90;;;;;;5012401;28;20079;-74
2021/08/03 03:26:04;;;;;;;0.13;0.13;;;14.50;99.90;;;;;;5010931;28;20029;-74
2021/08/03 03:28:35;;;;;;;0.10;0.10;;;14.40;99.90;;;;;;5012084;28;20101;-74
2021/08/03 03:31:02;;;;;;;0.10;0.10;;;14.40;99.90;;;;;;5012229;28;20080;-74
2021/08/03 03:33:30;;;;;;;0.13;0.13;;;14.70;99.90;;;;;;5012005;28;20486;-75
2021/08/03 03:35:59;;;;;;;0.20;0.20;;;14.80;99.90;;;;;;5010867;28;20053;-75
2021/08/03 03:38:28;;;;;;;0.10;0.10;;;14.90;99.90;;;;;;5010790;28;20030;-74
2021/08/03 03:40:55;;;;;;;0.10;0.10;;;15.00;99.90;;;;;;5010661;28;20029;-75
2021/08/03 03:43:22;;;;;;;0.10;0.10;;;15.10;99.90;;;;;;5010719;28;20033;-74
2021/08/03 03:46:05;;;;;;;0.10;0.10;;;15.20;99.90;;;;;;5012019;28;20030;-74
2021/08/03 03:48:35;;;;;;;0.20;0.20;;;15.20;99.90;;;;;;5012029;28;20026;-74
2021/08/03 03:51:03;;;;;;;0.10;0.10;;;14.90;99.90;;;;;;5012063;28;20046;-74
2021/08/03 03:54:01;;;;;;;0.10;0.10;;;15.10;99.90;;;;;;5011732;28;20022;-74
2021/08/03 03:56:42;;;;;;;0.20;0.20;;;15.10;99.90;;;;;;5002757;28;20497;-74
2021/08/03 03:59:10;;;;;;;0.10;0.10;;;15.00;99.90;;;;;;5011913;28;20425;-74
2021/08/03 04:01:38;;;;;;;0.17;0.17;;;15.00;99.90;;;;;;5011812;28;20030;-74
2021/08/03 04:04:10;;;;;;;0.10;0.10;;;15.00;99.90;;;;;;5013882;28;20034;-74
2021/08/03 04:06:36;;;;;;;0.10;0.10;;;15.00;99.90;;;;;;5014409;28;20029;-74
2021/08/03 04:09:02;;;;;;;0.20;0.20;;;15.00;99.90;;;;;;5015411;28;20452;-74
2021/08/03 04:11:28;;;;;;;0.40;0.40;;;14.90;99.90;;;;;;5015333;28;20110;-75
2021/08/03 04:13:55;;;;;;;0.10;0.10;;;14.90;99.90;;;;;;5015303;28;20025;-75
2021/08/03 04:16:21;;;;;;;0.38;0.38;;;14.90;99.90;;;;;;5015342;28;20034;-74
2021/08/03 04:18:47;;;;;;;0.13;0.13;;;14.80;99.90;;;;;;5015284;28;20026;-74
2021/08/03 04:21:12;;;;;;;0.10;0.10;;;14.60;99.90;;;;;;5015281;28;20401;-74
2021/08/03 04:23:38;;;;;;;0.20;0.20;;;14.50;99.90;;;;;;5013867;28;20032;-74
2021/08/03 04:26:04;;;;;;;0.10;0.10;;;14.40;99.90;;;;;;5013822;28;20040;-74
2021/08/03 04:28:30;;;;;;;0.13;0.13;;;14.50;99.90;;;;;;5013878;28;20058;-74
2021/08/03 04:30:58;;;;;;;0.10;0.10;;;14.50;99.90;;;;;;5014000;28;20052;-74
2021/08/03 04:33:23;;;;;;;0.20;0.20;;;14.50;99.90;;;;;;5013739;28;20092;-74
2021/08/03 04:35:49;;;;;;;0.10;0.10;;;14.50;99.90;;;;;;5013792;28;20030;-74
2021/08/03 04:38:15;;;;;;;0.20;0.20;;;14.40;99.90;;;;;;5014965;28;20069;-74
2021/08/03 04:40:40;;;;;;;0.10;0.10;;;14.30;99.90;;;;;;5013758;28;20049;-74
2021/08/03 04:43:06;;;;;;;0.55;0.55;;;14.20;99.90;;;;;;5014893;28;20529;-74
2021/08/03 04:45:32;;;;;;;0.10;0.10;;;14.20;99.90;;;;;;5014839;28;20034;-74
2021/08/03 04:47:57;;;;;;;0.52;0.40;;;14.20;99.90;;;;;;5014771;28;20032;-74
2021/08/03 04:50:26;;;;;;;0.50;0.50;;;14.20;99.90;;;;;;5014791;28;20017;-74
2021/08/03 04:52:53;;;;;;;0.55;0.55;;;14.20;99.90;;;;;;5013352;28;20105;-74
2021/08/03 04:55:18;;;;;;;0.20;0.20;;;14.20;99.90;;;;;;5013212;28;20022;-74
2021/08/03 04:57:45;;;;;;;0.20;0.20;;;14.20;99.90;;;;;;5013354;28;20040;-75
2021/08/03 05:00:13;;;;;;;0.10;0.10;;;14.30;99.90;;;;;;5013020;28;20052;-74
2021/08/03 05:02:39;;;;;;;0.30;0.30;;;14.30;99.90;;;;;;5013719;28;20049;-74
2021/08/03 05:05:06;;;;;;;0.20;0.20;;;14.30;99.90;;;;;;5012957;28;20434;-74
2021/08/03 05:07:32;;;;;;;0.20;0.20;;;14.40;99.90;;;;;;5013765;28;20029;-75
2021/08/03 05:10:04;;;;;;;0.20;0.20;;;14.50;99.90;;;;;;5013431;28;20026;-74
2021/08/03 05:12:30;;;;;;;0.10;0.10;;;14.60;99.90;;;;;;5012403;28;20108;-74
2021/08/03 05:15:02;;;;;;;0.10;0.10;;;14.80;99.90;;;;;;5011688;28;20034;-74
2021/08/03 05:17:29;;;;;;;;;;;14.90;99.90;;;;;;5012918;28;20425;-74
2021/08/03 05:19:55;;;;;;;0.10;0.10;;;15.10;99.90;;;;;;5013310;28;19955;-74
2021/08/03 05:22:20;;;;;;;0.10;0.10;;;15.30;99.90;;;;;;5012374;28;20026;-75
2021/08/03 05:24:46;;;;;;;0.10;0.10;;;15.40;99.90;;;;;;5012828;28;20030;-74
2021/08/03 05:27:12;;;;;;;0.20;0.20;;;15.60;99.90;;;;;;5012321;28;20137;-74
2021/08/03 05:29:38;;;;;;;0.10;0.10;;;15.70;99.90;;;;;;5012838;28;20018;-74
2021/08/03 05:32:03;;;;;;;0.45;0.45;;;15.80;99.90;;;;;;5012008;28;20398;-75
2021/08/03 05:34:29;;;;;;;0.10;0.10;;;16.00;99.90;;;;;;5012744;28;20033;-76
2021/08/03 05:36:55;;;;;;;0.08;0.08;;;16.00;99.90;;;;;;5011961;28;20049;-75
2021/08/03 05:39:21;;;;;;;0.10;0.10;;;16.10;99.90;;;;;;4994800;28;20022;-74
2021/08/03 05:41:46;;;;;;;0.63;0.63;;;16.20;99.90;;;;;;5013024;28;20033;-76
2021/08/03 05:44:12;;;;;;;0.10;0.10;;;16.30;99.90;;;;;;5011918;28;20026;-75
2021/08/03 05:46:38;;;;;;;0.20;0.20;;;16.30;99.90;;;;;;5011680;28;20626;-75
2021/08/03 05:49:04;;;;;;;0.10;0.10;;;16.30;99.90;;;;;;5011114;28;20125;-76
2021/08/03 05:51:30;;;;;;;0.10;0.10;;;16.30;99.90;;;;;;5011604;28;20485;-75
2021/08/03 05:53:55;;;;;;;0.30;0.30;;;16.40;99.90;;;;;;5011342;28;20129;-75
2021/08/03 05:56:21;;;;;;;0.20;0.20;;;16.30;99.90;;;;;;5011451;28;20109;-74
2021/08/03 05:58:47;;;;;;;0.10;0.10;;;16.30;99.90;;;;;;5012677;28;20025;-75
2021/08/03 06:01:13;;;;;;;0.10;0.10;;;16.30;99.90;;;;;;5011112;28;20028;-75
2021/08/03 06:03:38;;;;;;;0.10;0.10;;;16.50;99.90;;;;;;5011200;28;20068;-75
2021/08/03 06:06:07;;;;;;;0.10;0.10;;;16.70;99.90;;;;;;5011773;28;20390;-75
2021/08/03 06:08:35;;;;;;;0.13;0.13;;;16.80;99.90;;;;;;5012612;28;20108;-75
2021/08/03 06:11:02;;;;;;;0.10;0.10;;;16.90;99.90;;;;;;5011628;28;20033;-75
2021/08/03 06:13:30;;;;;;;0.17;0.17;;;17.10;99.90;;;;;;5012186;28;20072;-75
2021/08/03 06:15:59;;;;;;;0.30;0.30;;;17.20;99.90;;;;;;5011785;28;20034;-75
2021/08/03 06:18:30;;;;;;;0.10;0.10;;;17.40;99.90;;;;;;4994651;28;20061;-75
2021/08/03 06:20:57;;;;;;;0.10;0.10;;;17.40;99.90;;;;;;5007652;28;20560;-75
2021/08/03 06:23:24;;;;;;;0.10;0.10;;;17.50;99.90;;;;;;5012042;28;20036;-75
2021/08/03 06:25:52;;;;;;;0.10;0.10;;;17.50;99.90;;;;;;5011158;28;20109;-75
2021/08/03 06:28:22;;;;;;;0.10;0.10;;;17.60;99.90;;;;;;5012175;28;20022;-74
2021/08/03 06:30:49;;;;;;;0.10;0.10;;;17.80;99.90;;;;;;5006834;28;20109;-75
2021/08/03 06:33:20;;;;;;;0.00;0.00;;;17.90;99.90;;;;;;5012282;28;20049;-75
2021/08/03 06:35:46;;;;;;;0.10;0.10;;;17.90;99.90;;;;;;5010479;28;20468;-75
2021/08/03 06:38:13;;;;;;;0.10;0.10;;;18.00;99.90;;;;;;5012103;28;20112;-75
2021/08/03 06:40:46;;;;;;;0.43;0.43;;;18.10;99.90;;;;;;5010379;28;20033;-74
2021/08/03 06:43:17;;;;;;;0.10;0.10;;;18.10;99.90;;;;;;5010786;28;20640;-76
2021/08/03 06:45:47;;;;;;;0.10;0.10;;;18.20;99.90;;;;;;5012170;28;20018;-75
2021/08/03 06:48:59;;;;;;;0.10;0.10;;;18.30;99.90;;;;;;5012021;28;20281;-75
2021/08/03 06:51:30;;;;;;;3.55;1.23;;;18.60;99.90;;;;;;5000652;28;20105;-75
2021/08/03 06:53:57;;;;;;;0.03;0.03;;;18.80;99.90;;;;;;5010537;28;20037;-76
2021/08/03 06:56:24;;;;;;;0.10;0.10;;;18.80;99.90;;;;;;5012430;28;20030;-78
2021/08/03 06:59:04;;;;;;;0.10;0.10;;;18.70;99.90;;;;;;5011408;28;20033;-76
2021/08/03 07:01:30;;;;;;;0.00;0.00;;;18.70;99.90;;;;;;5012093;28;20022;-76
2021/08/03 07:04:02;;;;;;;0.28;0.28;;;18.80;99.90;;;;;;4994358;28;20456;-76
2021/08/03 07:06:31;;;;;;;0.10;0.10;;;18.90;99.90;;;;;;4990528;28;20026;-76
2021/08/03 07:08:59;;;;;;;0.10;0.10;;;18.90;99.90;;;;;;5011181;28;20398;-76
2021/08/03 07:11:29;;;;;;;0.10;0.10;;;19.00;99.90;;;;;;5012480;28;20037;-77
2021/08/03 07:13:57;;;;;;;0.10;0.10;;;19.10;99.90;;;;;;5011046;28;20029;-76
2021/08/03 07:16:26;;;;;;;0.10;0.10;;;19.30;99.90;;;;;;5011021;28;20493;-77
2021/08/03 07:18:53;;;;;;;0.20;0.20;;;19.20;99.90;;;;;;5012413;28;20022;-76
2021/08/03 07:21:19;;;;;;;0.10;0.10;;;19.20;99.90;;;;;;5011379;28;20026;-76
2021/08/03 07:23:47;;;;;;;0.00;0.00;;;19.30;99.90;;;;;;5012400;28;20061;-76
2021/08/03 07:26:12;;;;;;;0.10;0.10;;;19.30;99.90;;;;;;5010245;28;20611;-76
2021/08/03 07:28:38;;;;;;;0.30;0.30;;;19.10;99.90;;;;;;5012119;28;20029;-77
2021/08/03 07:31:04;;;;;;;0.10;0.10;;;18.70;99.90;;;;;;5011143;28;20026;-77
2021/08/03 07:33:30;;;;;;;0.10;0.10;;;18.70;99.90;;;;;;5011405;28;20080;-77
2021/08/03 07:35:55;;;;;;;0.10;0.10;;;19.10;99.90;;;;;;5012728;28;20100;-77
2021/08/03 07:38:22;;;;;;;0.20;0.20;;;19.40;99.90;;;;;;5014026;28;20022;-76
2021/08/03 07:40:47;;;;;;;0.10;0.10;;;19.60;99.90;;;;;;5016694;28;20084;-76
2021/08/03 07:43:13;;;;;;;0.10;0.10;;;19.90;99.90;;;;;;5015248;28;20124;-76
2021/08/03 07:45:39;;;;;;;0.10;0.10;;;19.90;99.90;;;;;;4997997;28;20490;-76
2021/08/03 07:48:08;;;;;;;0.10;0.10;;;19.80;99.90;;;;;;4998663;28;20029;-76
2021/08/03 07:50:35;;;;;;;0.00;0.00;;;19.80;99.00;;;;;;5016128;28;20489;-76
2021/08/03 07:53:00;;;;;;;0.05;0.05;;;19.80;99.90;;;;;;5014023;28;20061;-77
2021/08/03 07:55:26;;;;;;;0.10;0.10;;;19.80;99.60;;;;;;5016667;28;20168;-76
2021/08/03 07:57:52;;;;;;;0.10;0.10;;;19.70;96.00;;;;;;5015666;28;20026;-76
2021/08/03 08:00:18;;;;;;;0.10;0.10;;;19.90;95.40;;;;;;5014652;28;20061;-76
2021/08/03 08:02:44;;;;;;;0.10;0.10;;;20.00;94.60;;;;;;5015481;28;20041;-76
2021/08/03 08:05:09;;;;;;;0.40;0.40;;;20.30;92.50;;;;;;5014353;28;20041;-76
2021/08/03 08:07:35;;;;;;;0.43;0.43;;;20.50;89.30;;;;;;5014301;28;20137;-76
2021/08/03 08:10:01;;;;;;;0.10;0.10;;;20.70;91.00;;;;;;5015186;28;20113;-77
2021/08/03 08:12:27;;;;;;;0.10;0.10;;;20.80;86.40;;;;;;5014881;28;20014;-77
2021/08/03 08:14:52;;;;;;;0.10;0.10;;;20.70;81.00;;;;;;5016290;28;20026;-77
2021/08/03 08:17:18;;;;;;;0.50;0.50;;;20.80;82.10;;;;;;5014588;28;20536;-77
2021/08/03 08:19:44;;;;;;;0.00;0.00;;;20.90;81.00;;;;;;5015831;28;20029;-77
2021/08/03 08:22:11;;;;;;;0.00;0.00;;;20.90;83.20;;;;;;5014576;28;20029;-77
2021/08/03 08:24:37;;;;;;;0.38;0.13;;;21.30;81.90;;;;;;5015175;28;20026;-77
2021/08/03 08:27:03;;;;;;;0.00;0.00;;;21.60;81.70;;;;;;5016601;28;20045;-77
2021/08/03 08:29:28;;;;;;;0.10;0.10;;;21.90;81.50;;;;;;5017561;28;20017;-76
2021/08/03 08:31:54;;;;;;;0.00;0.00;;;22.20;78.40;;;;;;5015604;28;20418;-77
2021/08/03 08:34:20;;;;;;;0.28;0.28;;;22.40;75.60;;;;;;5015847;28;20306;-77
2021/08/03 08:36:45;;;;;;;0.10;0.10;;;22.10;73.00;;;;;;5014833;28;20029;-76
2021/08/03 08:39:11;;;;;;;0.10;0.10;;;22.10;73.60;;;;;;5016665;28;20033;-77
2021/08/03 08:41:38;;;;;;;0.30;0.30;;;21.70;75.60;;;;;;5010817;28;20030;-77
2021/08/03 08:44:04;;;;;;;0.17;0.17;;;21.70;76.70;;;;;;5016859;28;20030;-77
2021/08/03 08:46:37;;;;;;;0.00;0.00;;;22.00;78.40;;;;;;5016724;28;20022;-77
2021/08/03 08:49:19;;;;;;;;;;;;;;;;;;;;;
2021/08/03 08:51:45;;;;;;;0.32;0.25;;;22.90;75.70;;;;;;5013422;28;20034;-77
2021/08/03 08:54:10;;;;;;;0.10;0.10;;;23.10;73.10;;;;;;5016820;28;20029;-77
2021/08/03 08:56:36;;;;;;;0.00;0.00;;;22.90;72.90;;;;;;5015190;28;20025;-76
2021/08/03 08:59:02;;;;;;;0.00;0.00;;;23.10;71.50;;;;;;5015985;28;20033;-77
2021/08/03 09:01:28;;;;;;;0.10;0.10;;;23.40;68.50;;;;;;5016239;28;20389;-77
2021/08/03 09:03:53;;;;;;;0.10;0.10;;;23.70;69.20;;;;;;5015118;28;20030;-77
2021/08/03 09:06:21;;;;;;;0.20;0.20;;;23.70;66.00;;;;;;5013524;28;20461;-77
2021/08/03 09:08:49;;;;;;;0.20;0.20;;;23.70;67.20;;;;;;5015122;28;20057;-77
2021/08/03 09:11:17;;;;;;;0.00;0.00;;;24.00;68.30;;;;;;4999319;28;20029;-77
2021/08/03 09:13:56;;;;;;;0.00;0.00;;;24.20;64.40;;;;;;5014399;28;20105;-78
2021/08/03 09:16:24;;;;;;;0.00;0.00;;;24.50;61.70;;;;;;5017358;28;20036;-77
2021/08/03 09:18:53;;;;;;;0.05;0.05;;;24.90;59.90;;;;;;5015828;28;20487;-76
2021/08/03 09:21:25;;;;;;;0.10;0.10;;;24.70;56.60;;;;;;5014882;28;20061;-77
2021/08/03 09:24:00;;;;;;;0.22;0.22;;;24.70;57.20;;;;;;5016214;28;20022;-77
2021/08/03 09:26:40;;;;;;;0.08;0.08;;;25.10;58.70;;;;;;4999011;28;20038;-77
2021/08/03 09:29:08;;;;;;;0.03;0.03;;;24.80;59.20;;;;;;5015735;28;20022;-77
2021/08/03 09:31:36;;;;;;;0.00;0.00;;;24.40;59.70;;;;;;5016069;28;20024;-77
2021/08/03 09:34:14;;;;;;;0.10;0.10;;;24.60;59.70;;;;;;5014450;28;20034;-77
2021/08/03 09:36:48;;;;;;;0.05;0.05;;;24.90;58.40;;;;;;5015940;28;20040;-77
2021/08/03 09:39:45;;;;;;;0.08;0.08;;;25.00;58.20;;;;;;5015611;28;20021;-77
2021/08/03 09:42:24;;;;;;;0.20;0.20;;;25.00;57.50;;;;;;5015309;28;20034;-76
2021/08/03 09:44:58;;;;;;;0.98;0.88;;;25.40;58.50;;;;;;4996701;28;20081;-77
2021/08/03 09:47:26;;;;;;;0.10;0.10;;;25.50;56.60;;;;;;5003341;28;20044;-76
2021/08/03 09:49:55;;;;;;;0.10;0.10;;;25.60;57.40;;;;;;5016469;28;20053;-77
2021/08/03 09:52:27;;;;;;;0.05;0.05;;;26.10;56.40;;;;;;5014141;28;20029;-77
2021/08/03 09:55:20;;;;;;;1.15;0.55;;;26.20;55.00;;;;;;5015914;28;20549;-77
2021/08/03 09:57:47;;;;;;;0.00;0.00;;;26.20;54.70;;;;;;5014904;28;20064;-77
2021/08/03 10:00:36;;;;;;;0.10;0.10;;;26.30;54.70;;;;;;5012644;28;20033;-76
2021/08/03 10:03:04;;;;;;;0.10;0.10;;;26.10;55.50;;;;;;5008113;28;20442;-75
2021/08/03 10:05:30;;;;;;;0.00;0.00;;;26.50;55.70;;;;;;4994694;28;20044;-75
2021/08/03 10:07:56;;;;;;;0.00;0.00;;;27.10;53.80;;;;;;5011768;28;20077;-73
2021/08/03 10:10:23;;;;;;;0.00;0.00;;;27.50;53.90;;;;;;5012226;28;20370;-72
2021/08/03 10:12:49;;;;;;;0.17;0.17;;;27.70;53.50;;;;;;5011219;28;20022;-71
2021/08/03 10:15:14;;;;;;;0.00;0.00;;;27.80;53.90;;;;;;5010705;28;20037;-72
2021/08/03 10:17:41;;;;;;;0.30;0.30;;;28.00;51.80;;;;;;5011986;28;20026;-71
2021/08/03 10:20:10;;;;;;;3.72;0.60;;;27.80;52.90;;;;;;4993514;28;20037;-74
2021/08/03 10:22:40;;;;;;;0.00;0.00;;;27.30;53.00;;;;;;5012349;28;20022;-75
2021/08/03 10:25:13;;;;;;;2.35;0.30;;;26.60;53.70;;;;;;5009709;28;20100;-75
2021/08/03 10:27:44;;;;;;;0.10;0.10;;;26.40;53.80;;;;;;5011959;28;20135;-75
2021/08/03 10:30:28;;;;;;;0.10;0.10;;;26.40;53.80;;;;;;5011295;28;20026;-75
2021/08/03 10:33:10;;;;;;;8.68;1.20;;;26.40;53.20;;;;;;5008319;28;20021;-75
2021/08/03 10:35:43;;;;;;;0.00;0.00;;;26.50;53.50;;;;;;5009780;28;20041;-75
2021/08/03 10:38:12;;;;;;;0.00;0.00;;;26.20;53.70;;;;;;5010196;28;20030;-74
2021/08/03 10:40:44;;;;;;;0.05;0.05;;;26.70;54.00;;;;;;5011797;28;20018;-75
2021/08/03 10:43:33;;;;;;;0.00;0.00;;;26.60;52.40;;;;;;5010051;28;20030;-75
2021/08/03 10:46:07;;;;;;;3.30;0.40;;;27.10;54.60;;;;;;4997336;28;20046;-75
2021/08/03 10:48:39;;;;;;;0.00;0.00;;;27.40;51.90;;;;;;5009891;28;20075;-74
2021/08/03 10:51:17;;;;;;;0.10;0.10;;;27.00;52.10;;;;;;5011102;28;20540;-73
2021/08/03 10:54:12;;;;;;;0.00;0.00;;;26.90;52.50;;;;;;4993036;28;20042;-74
2021/08/03 10:57:00;;;;;;;0.00;0.00;;;26.70;53.50;;;;;;5010006;28;20109;-75
2021/08/03 10:59:35;;;;;;;0.00;0.00;;;26.90;53.50;;;;;;5009631;28;20405;-74
2021/08/03 11:02:05;;;;;;;0.38;0.38;;;26.50;53.70;;;;;;5011317;28;20026;-75
2021/08/03 11:04:41;;;;;;;0.00;0.00;;;25.80;55.60;;;;;;5009701;28;20022;-74
2021/08/03 11:07:36;;;;;;;0.08;0.08;;;25.60;55.70;;;;;;5009857;28;20025;-74
2021/08/03 11:10:22;;;;;;;0.00;0.00;;;25.40;54.70;;;;;;5009524;28;20022;-73
2021/08/03 11:12:49;;;;;;;0.13;0.13;;;25.30;56.50;;;;;;4994665;28;20049;-74
2021/08/03 11:15:21;;;;;;;0.00;0.00;;;25.80;54.20;;;;;;5009398;28;20022;-74
2021/08/03 11:17:54;;;;;;;0.00;0.00;;;26.10;54.10;;;;;;4989753;28;20489;-74
2021/08/03 11:20:59;;;;;;;0.00;0.00;;;26.40;53.50;;;;;;5010849;28;20056;-74
2021/08/03 11:24:03;;;;;;;0.00;0.00;;;26.60;52.10;;;;;;5010900;28;20022;-74
2021/08/03 11:26:36;;;;;;;0.00;0.00;;;26.10;53.60;;;;;;4989068;28;20034;-74
2021/08/03 11:29:11;;;;;;;0.00;0.00;;;26.10;54.20;;;;;;5010475;28;20053;-74
2021/08/03 11:31:50;;;;;;;0.00;0.00;;;25.90;54.40;;;;;;5009809;28;20014;-74
2021/08/03 11:34:30;;;;;;;0.00;0.00;;;26.30;54.20;;;;;;5010583;28;20096;-74
2021/08/03 11:37:17;;;;;;;0.10;0.10;;;26.70;53.60;;;;;;5009941;28;20045;-74
2021/08/03 11:39:49;;;;;;;0.00;0.00;;;26.60;51.20;;;;;;5008657;28;20022;-74
2021/08/03 11:42:18;;;;;;;0.00;0.00;;;27.10;50.10;;;;;;5009270;28;20497;-74
2021/08/03 11:44:45;;;;;;;2.35;0.08;;;27.10;49.70;;;;;;5010372;28;20041;-74
2021/08/03 11:47:13;;;;;;;0.85;0.10;;;27.20;48.70;;;;;;5010918;28;20038;-74
2021/08/03 11:49:47;;;;;;;0.20;0.10;;;26.40;50.70;;;;;;5010196;28;20068;-74
2021/08/03 11:52:22;;;;;;;0.55;0.55;;;26.10;52.30;;;;;;5009458;28;20018;-74
2021/08/03 11:54:51;;;;;;;0.00;0.00;;;25.70;54.40;;;;;;5009149;28;20022;-74
2021/08/03 11:57:25;;;;;;;0.00;0.00;;;26.00;53.00;;;;;;5010751;28;20033;-73
2021/08/03 12:00:10;;;;;;;0.10;0.10;;;26.50;52.10;;;;;;5008962;28;20026;-74
2021/08/03 12:02:37;;;;;;;0.45;0.45;;;26.50;53.60;;;;;;4991893;28;20033;-75
2021/08/03 12:05:08;;;;;;;0.00;0.00;;;26.80;53.70;;;;;;5002781;28;20031;-76
2021/08/03 12:07:35;;;;;;;0.00;0.00;;;26.80;53.50;;;;;;5010754;28;20026;-76
2021/08/03 12:10:01;;;;;;;0.00;0.00;;;26.40;52.90;;;;;;5010664;28;20243;-76
2021/08/03 12:12:26;;;;;;;0.00;0.00;;;26.30;53.60;;;;;;5010745;28;20040;-75
2021/08/03 12:15:08;;;;;;;0.10;0.10;;;26.40;54.00;;;;;;5008962;28;20025;-74
2021/08/03 12:17:36;;;;;;;0.00;0.00;;;26.10;53.60;;;;;;5011048;28;20018;-76
2021/08/03 12:20:22;;;;;;;0.00;0.00;;;26.00;53.40;;;;;;5009044;28;20117;-76
2021/08/03 12:22:48;;;;;;;0.00;0.00;;;25.80;53.20;;;;;;5006664;28;20598;-75
2021/08/03 12:25:13;;;;;;;0.00;0.00;;;25.50;53.70;;;;;;5012515;28;20026;-76
2021/08/03 12:27:42;;;;;;;0.13;0.13;;;25.40;54.70;;;;;;5012816;28;20045;-76
2021/08/03 12:30:30;;;;;;;0.00;0.00;;;25.30;55.50;;;;;;5013380;28;20109;-75
2021/08/03 12:32:56;;;;;;;0.00;0.00;;;24.90;56.20;;;;;;5012927;28;20025;-76
2021/08/03 12:35:22;;;;;;;0.03;0.03;;;24.80;56.70;;;;;;5013529;28;20022;-75
2021/08/03 12:37:47;;;;;;;1.80;1.25;;;24.90;56.50;;;;;;5013061;28;20062;-75
2021/08/03 12:40:34;;;;;;;0.00;0.00;;;24.80;57.00;;;;;;5013470;28;20549;-75
2021/08/03 12:43:00;;;;;;;0.00;0.00;;;25.00;55.80;;;;;;5009146;28;20022;-76
2021/08/03 12:45:29;;;;;;;0.00;0.00;;;25.20;56.50;;;;;;5013579;28;20052;-75
2021/08/03 12:48:03;;;;;;;0.17;0.17;;;25.50;57.20;;;;;;5013872;28;20041;-76
2021/08/03 12:50:44;;;;;;;0.00;0.00;;;25.70;56.90;;;;;;5012160;28;20029;-76
2021/08/03 12:53:22;;;;;;;0.15;0.15;;;25.60;57.60;;;;;;5010851;28;20780;-75
2021/08/03 12:55:53;;;;;;;0.00;0.00;;;25.30;56.30;;;;;;5013548;28;20430;-75
2021/08/03 12:58:52;;;;;;;0.00;0.00;;;25.10;57.70;;;;;;5012321;28;20080;-75
2021/08/03 13:01:18;;;;;;;0.00;0.00;;;25.10;56.80;;;;;;4957830;28;20498;-75
2021/08/03 13:03:48;;;;;;;0.20;0.20;;;25.10;57.40;;;;;;5012050;28;20026;-75
2021/08/03 13:06:15;;;;;;;0.00;0.00;;;25.30;57.20;;;;;;5014365;28;20037;-75
2021/08/03 13:08:42;;;;;;;0.00;0.00;;;25.10;57.70;;;;;;5013604;28;20045;-75